LFLBLFLC

Guest
Details From LFLB - Aix-Les-Bains
To LFLC - Clermont-Ferrand_Auvergne
Flight Number -
Tags decoded
Created
Modified
Stats Distance 115 nm / 213 km
Max Altitude 0 ft / 0 m
Waypoints 4
Social Downloads 2
Likes 0
Share VATSIM

Download

Looking for another format? Having issues loading an existing format? Contact us
Advertisement - Login to hide

Notes

Requested: LFLB MEBAK Q20 SOPAD LFLC

Route

LFLB MEBAK Q20 SOPAD LFLC

ID Type Via Altitude Latitude Longitude Leg Dist Tot Dist Heading (true) Name
O LFLB APT - 0 ft / 0 m 45.63623˚ 5.88090˚ - 0 nm - Aix-Les-Bains
MEBAK FIX - 0 ft / 0 m 45.70806˚ 4.64889˚ 51 nm 51 nm 275° / 274° -
SOPAD FIX Q20 (AWY-LO) 0 ft / 0 m 45.65333˚ 4.20556˚ 18 nm 70 nm 260° / 260° -
O LFLC APT - 0 ft / 0 m 45.78671˚ 3.16997˚ 44 nm 114 nm 281° / 280° Clermont-Ferrand_Auvergne

Altitude Profile

Advertisement - Login to hide

LFLB

Details ICAO LFLB (CMF)
Name Aix-Les-Bains
Region France
Timezone Europe/Paris (UTC+2.0)
Stats Elevation 779 ft / 237 m (AMSL)
Location 45.636234° 5.880898°
Runways 2
Magnetic Variation 1.742° E

METAR

LFLB 231500Z AUTO 01005KT 9999 ///TCU 19/15 Q1018 TEMPO VRB15G25KT 3000 TSRA SCT025CB

Decode

TAF

TAF LFLB 231100Z 2312/2412 36003KT 9999 SCT030 BKN060 TEMPO 2312/2318 SHRA SCT030TCU PROB40 TEMPO 2313/2316 VRB15G25KT 3000 TSRA SCT025CB PROB30 2403/2406 BKN012

Decode

Departure Runways

ID Width Length Bearing (true) Bearing (mag) Surface Threshold Offset Overrun Length
18 148 ft / 45 m 5,452 ft / 1,662 m 176.72° 174.98° Asphalt 26 ft / 8 m 774 ft / 236 m
18L 197 ft / 60 m 2,309 ft / 704 m 176.70° 174.96° Grass 0 ft / 0 m 0 ft / 0 m
36 148 ft / 45 m 5,452 ft / 1,662 m 356.72° 354.98° Asphalt 23 ft / 7 m 456 ft / 139 m
36R 197 ft / 60 m 2,309 ft / 704 m 356.70° 354.96° Grass 315 ft / 96 m 0 ft / 0 m

LFLC

Details ICAO LFLC (CFE)
Name Clermont-Ferrand_Auvergne
Region France
Timezone Europe/Paris (UTC+2.0)
Stats Elevation 1,089 ft / 332 m (AMSL)
Location 45.786712° 3.169967°
Runways 1
Magnetic Variation 1.034° E

METAR

LFLC 231500Z AUTO 24009KT 9999 ///CB 20/12 Q1017 TEMPO VRB15G25KT 2000 TSRA

Decode

TAF

TAF LFLC 231400Z 2315/2415 VRB05KT 9999 SCT033TCU TEMPO 2315/2318 SHRA SCT050CB PROB40 TEMPO 2315/2318 VRB15G25KT 2000 TSRA BKN040CB BECMG 2403/2406 CAVOK BECMG 2412/2415 FEW050TCU

Decode

Destination Runways

ID Width Length Bearing (true) Bearing (mag) Surface Threshold Offset Overrun Length
08 148 ft / 45 m 9,878 ft / 3,011 m 81.95° 80.92° Asphalt 0 ft / 0 m 0 ft / 0 m
26 148 ft / 45 m 9,878 ft / 3,011 m 261.98° 260.95° Asphalt 476 ft / 145 m 0 ft / 0 m

Approach Navaids

Runway Type Ident Frequency Range Bearing (true) Bearing (mag) Slope Elevation
26 Localiser CF 111.10 MHz 27 nm / 50 km 261.98° 260.95° - 1,089 ft / 332 m (AMSL)
26 Glidescope CF 111.10 MHz 27 nm / 50 km 261.98° 260.95° 3.00° 1,089 ft / 332 m (AMSL)
26 DME CF 111.10 MHz 27 nm / 50 km - - - 1,089 ft / 332 m (AMSL)

Popular Alternatives